createdAt,value
2023-03-13T00:02:33.354Z,10.27
2023-03-13T00:06:40.251Z,13.63
2023-03-13T00:10:43.733Z,10.07
2023-03-13T00:14:46.984Z,14.23
2023-03-13T00:18:51.967Z,11.05
2023-03-13T00:22:56.745Z,10.25
2023-03-13T00:27:03.341Z,15.68
2023-03-13T00:31:08.513Z,10.40
2023-03-13T00:35:11.602Z,12.15
2023-03-13T00:39:18.652Z,15.00
2023-03-13T00:43:21.752Z,11.18
2023-03-13T00:47:24.992Z,16.58
2023-03-13T00:51:29.081Z,14.63
2023-03-13T00:55:33.780Z,10.65
2023-03-13T00:59:36.990Z,9.27
2023-03-13T01:03:41.583Z,17.42
2023-03-13T01:07:45.028Z,14.05
2023-03-13T01:11:50.520Z,13.07
2023-03-13T01:15:53.749Z,15.63
2023-03-13T01:19:57.874Z,12.02
2023-03-13T01:24:01.333Z,12.82
2023-03-13T01:28:06.426Z,15.55
2023-03-13T01:32:09.515Z,10.63
2023-03-13T01:36:13.876Z,10.35
2023-03-13T01:40:17.114Z,12.60
2023-03-13T01:44:25.636Z,11.32
2023-03-13T01:48:37.023Z,9.13
2023-03-13T01:52:40.297Z,19.42
2023-03-13T01:56:48.762Z,10.57
2023-03-13T02:00:53.660Z,14.48
2023-03-13T02:05:00.417Z,13.35
2023-03-13T02:09:06.865Z,12.73
2023-03-13T02:13:14.251Z,13.57
2023-03-13T02:17:19.597Z,10.88
2023-03-13T02:21:36.275Z,18.42
2023-03-13T02:25:45.348Z,11.32
2023-03-13T02:29:48.888Z,18.52
2023-03-13T02:33:52.411Z,14.13
2023-03-13T02:37:59.072Z,21.75
2023-03-13T02:42:05.080Z,16.40
2023-03-13T02:46:11.645Z,15.27
2023-03-13T02:50:15.916Z,13.90
2023-03-13T02:54:22.804Z,11.60
2023-03-13T02:58:27.535Z,18.08
2023-03-13T03:02:30.740Z,11.63
2023-03-13T03:06:33.985Z,16.63
2023-03-13T03:10:38.322Z,17.58
2023-03-13T03:14:42.663Z,15.43
2023-03-13T03:18:46.319Z,14.85
2023-03-13T03:22:49.445Z,24.40
2023-03-13T03:26:52.675Z,56.40
2023-03-13T03:30:57.603Z,50.25
2023-03-13T03:35:00.952Z,23.42
2023-03-13T03:39:04.055Z,32.45
2023-03-13T03:43:07.745Z,13.73
2023-03-13T03:47:14.375Z,8.75
2023-03-13T03:51:17.870Z,11.38
2023-03-13T03:55:21.171Z,19.08
2023-03-13T03:59:24.609Z,11.55
2023-03-13T04:03:29.313Z,13.05
2023-03-13T04:07:32.556Z,11.32
2023-03-13T04:11:35.851Z,13.48
2023-03-13T04:15:39.948Z,10.32
2023-03-13T04:19:44.826Z,9.77
2023-03-13T04:23:48.041Z,9.27
2023-03-13T04:27:51.135Z,10.77
2023-03-13T04:31:54.336Z,21.48
2023-03-13T04:35:59.031Z,22.45
2023-03-13T04:40:03.067Z,24.30
2023-03-13T04:44:06.072Z,14.18
2023-03-13T04:48:09.453Z,12.18
2023-03-13T04:52:15.925Z,9.00
2023-03-13T04:56:41.195Z,13.25
2023-03-13T05:00:45.621Z,15.60
2023-03-13T05:04:50.578Z,12.48
2023-03-13T05:08:56.580Z,14.30
2023-03-13T05:12:59.737Z,13.90
2023-03-13T05:17:02.985Z,8.07
2023-03-13T05:21:06.849Z,13.68
2023-03-13T05:25:11.914Z,15.43
2023-03-13T05:29:15.180Z,13.20
2023-03-13T05:33:19.770Z,15.50
2023-03-13T05:37:23.043Z,15.05
2023-03-13T05:41:27.631Z,12.80
2023-03-13T05:45:31.231Z,11.25
2023-03-13T05:49:34.338Z,10.57
2023-03-13T05:53:39.201Z,13.48
2023-03-13T05:57:47.788Z,12.50
2023-03-13T06:01:51.132Z,11.20
2023-03-13T06:05:59.054Z,13.05
2023-03-13T06:10:02.424Z,18.25
2023-03-13T06:14:06.639Z,15.15
2023-03-13T06:18:09.841Z,16.75
2023-03-13T06:22:13.055Z,17.35
2023-03-13T06:26:16.798Z,15.77
2023-03-13T06:30:30.401Z,14.32
2023-03-13T06:34:33.686Z,14.70
2023-03-13T06:38:37.061Z,15.98
2023-03-13T06:42:40.130Z,18.70
2023-03-13T06:46:44.563Z,18.38
2023-03-13T06:50:47.964Z,17.13
2023-03-13T06:54:51.125Z,32.95
2023-03-13T06:58:54.372Z,17.80
2023-03-13T07:02:58.720Z,14.23
2023-03-13T07:07:01.903Z,21.40
2023-03-13T07:11:06.950Z,16.77
2023-03-13T07:15:11.732Z,11.88
2023-03-13T07:19:17.985Z,17.30
2023-03-13T07:23:21.463Z,15.43
2023-03-13T07:27:24.686Z,12.45
2023-03-13T07:31:28.376Z,14.18
2023-03-13T07:35:32.743Z,18.85
2023-03-13T07:39:36.480Z,18.17
2023-03-13T07:43:39.366Z,16.00
2023-03-13T07:47:42.517Z,16.05
2023-03-13T07:51:48.341Z,18.98
2023-03-13T07:55:59.461Z,14.88
2023-03-13T08:00:05.516Z,15.48
2023-03-13T08:04:08.867Z,20.77
2023-03-13T08:08:13.318Z,15.15
2023-03-13T08:12:16.536Z,16.23
2023-03-13T08:16:21.742Z,12.65
2023-03-13T08:20:25.025Z,13.65
2023-03-13T08:24:29.417Z,11.70
2023-03-13T08:28:32.651Z,10.30
2023-03-13T08:32:36.003Z,10.73
2023-03-13T08:36:39.670Z,9.32
2023-03-13T08:40:43.899Z,10.70
2023-03-13T08:44:46.835Z,12.88
2023-03-13T08:48:51.145Z,10.48
2023-03-13T08:52:54.322Z,12.35
2023-03-13T08:56:59.930Z,10.05
2023-03-13T09:01:04.788Z,9.63
2023-03-13T09:05:09.278Z,9.25
2023-03-13T09:09:13.320Z,10.60
2023-03-13T09:13:17.806Z,8.82
2023-03-13T09:17:21.562Z,13.10
2023-03-13T09:21:26.491Z,9.95
2023-03-13T09:25:29.868Z,12.50
2023-03-13T09:29:38.163Z,6.50
2023-03-13T09:37:50.214Z,14.00
2023-03-13T09:41:58.972Z,6.72
2023-03-13T09:46:07.910Z,8.30
2023-03-13T09:50:16.167Z,10.10
2023-03-13T09:54:26.515Z,13.57
2023-03-13T09:58:32.902Z,8.23
2023-03-13T10:02:38.714Z,15.35
2023-03-13T10:06:45.728Z,6.45
2023-03-13T10:10:55.444Z,8.05
2023-03-13T10:15:39.116Z,5.45
2023-03-13T10:19:44.819Z,6.55
2023-03-13T10:23:53.796Z,12.00
2023-03-13T10:27:58.637Z,6.82
2023-03-13T10:32:03.141Z,11.07
2023-03-13T10:36:10.547Z,7.00
2023-03-13T10:40:15.757Z,4.10
2023-03-13T10:44:21.326Z,6.07
2023-03-13T10:48:26.558Z,5.28
2023-03-13T10:52:35.362Z,5.28
2023-03-13T10:56:38.354Z,4.05
2023-03-13T11:00:42.973Z,5.75
2023-03-13T11:04:49.484Z,4.60
2023-03-13T11:09:00.884Z,7.78
2023-03-13T11:13:04.629Z,4.97
2023-03-13T11:17:16.548Z,6.07
2023-03-13T11:21:25.840Z,8.18
2023-03-13T11:25:37.761Z,5.93
2023-03-13T11:29:50.484Z,5.85
2023-03-13T11:33:59.562Z,8.77
2023-03-13T11:38:08.726Z,36.40
2023-03-13T11:42:34.448Z,12.20
2023-03-13T11:46:51.056Z,9.98
2023-03-13T11:51:00.195Z,8.40
2023-03-13T11:55:30.915Z,6.38
2023-03-13T11:59:43.941Z,2.60
2023-03-13T12:03:58.091Z,4.63
2023-03-13T12:08:05.263Z,9.38
2023-03-13T12:12:19.577Z,5.13
2023-03-13T12:16:32.191Z,4.20
2023-03-13T12:24:51.755Z,7.35
2023-03-13T12:29:07.668Z,5.70
2023-03-13T12:33:23.626Z,3.50
2023-03-13T12:37:35.746Z,6.28
2023-03-13T12:41:43.640Z,3.22
2023-03-13T12:46:04.248Z,5.15
2023-03-13T12:50:32.789Z,5.00
2023-03-13T12:54:48.959Z,3.55
2023-03-13T12:58:56.187Z,5.35
2023-03-13T13:03:17.938Z,11.95
2023-03-13T13:07:26.818Z,4.38
2023-03-13T13:11:58.141Z,5.93
2023-03-13T13:16:03.625Z,5.38
2023-03-13T13:20:38.146Z,5.30
2023-03-13T13:24:50.228Z,7.78
2023-03-13T13:28:54.031Z,4.03
2023-03-13T13:33:18.655Z,7.95
2023-03-13T13:37:30.831Z,7.53
2023-03-13T13:42:20.077Z,7.72
2023-03-13T13:46:29.413Z,7.13
2023-03-13T13:50:32.992Z,7.13
2023-03-13T13:54:56.772Z,4.85
2023-03-13T13:59:03.678Z,3.60
2023-03-13T14:03:20.686Z,3.83
2023-03-13T14:07:30.794Z,5.72
2023-03-13T14:11:38.459Z,4.57
2023-03-13T14:15:45.490Z,4.30
2023-03-13T14:19:51.212Z,10.15
2023-03-13T14:23:54.665Z,10.32
2023-03-13T14:27:58.133Z,3.78
2023-03-13T14:32:01.915Z,4.22
2023-03-13T14:36:07.569Z,5.18
2023-03-13T14:40:20.607Z,7.05
2023-03-13T14:44:26.505Z,6.53
2023-03-13T14:48:32.906Z,3.42
2023-03-13T14:52:40.236Z,7.90
2023-03-13T14:56:43.894Z,1.95
2023-03-13T15:00:49.078Z,4.75
2023-03-13T15:04:59.546Z,4.65
2023-03-13T15:09:20.447Z,3.10
2023-03-13T15:13:26.269Z,2.38
2023-03-13T15:17:30.394Z,3.53
2023-03-13T15:21:35.733Z,5.50
2023-03-13T15:25:41.143Z,5.95
2023-03-13T15:29:44.801Z,2.58
2023-03-13T15:33:47.811Z,3.42
2023-03-13T15:37:51.008Z,1.48
2023-03-13T15:41:56.397Z,2.75
2023-03-13T15:46:00.014Z,2.10
2023-03-13T15:50:03.056Z,3.10
2023-03-13T15:54:06.688Z,2.30
2023-03-13T15:58:13.457Z,6.22
2023-03-13T16:02:19.048Z,3.13
2023-03-13T16:06:31.251Z,1.67
2023-03-13T16:10:35.310Z,3.97
2023-03-13T16:14:40.893Z,3.85
2023-03-13T16:18:44.032Z,3.53
2023-03-13T16:22:47.950Z,2.55
2023-03-13T16:26:51.202Z,11.13
2023-03-13T16:30:57.451Z,5.50
2023-03-13T16:35:00.849Z,2.03
2023-03-13T16:39:09.429Z,4.50
2023-03-13T16:43:14.005Z,5.53
2023-03-13T16:47:23.513Z,5.65
2023-03-13T16:51:28.709Z,7.05
2023-03-13T16:55:37.007Z,1.73
2023-03-13T16:59:40.564Z,3.60
2023-03-13T17:03:44.861Z,9.63
2023-03-13T17:07:50.257Z,0.95
2023-03-13T17:11:53.659Z,2.17
2023-03-13T17:15:57.101Z,0.82
2023-03-13T17:20:01.969Z,4.15
2023-03-13T17:24:07.597Z,4.20
2023-03-13T17:28:14.515Z,2.85
2023-03-13T17:32:18.007Z,6.53
2023-03-13T17:36:24.817Z,1.77
2023-03-13T17:40:31.471Z,3.88
2023-03-13T17:44:34.902Z,2.05
2023-03-13T17:48:38.324Z,1.55
2023-03-13T17:52:43.040Z,2.22
2023-03-13T17:56:47.021Z,8.88
2023-03-13T18:00:50.996Z,1.95
2023-03-13T18:04:55.071Z,4.80
2023-03-13T18:09:08.845Z,4.65
2023-03-13T18:13:12.237Z,2.58
2023-03-13T18:17:17.637Z,2.95
2023-03-13T18:21:21.511Z,5.40
2023-03-13T18:25:26.251Z,2.22
2023-03-13T18:29:29.873Z,4.82
2023-03-13T18:33:32.877Z,9.70
2023-03-13T18:37:36.628Z,7.50
2023-03-13T18:41:41.452Z,2.78
2023-03-13T18:45:44.543Z,2.42
2023-03-13T18:49:49.409Z,2.83
2023-03-13T18:53:53.098Z,1.20
2023-03-13T18:57:58.538Z,1.58
2023-03-13T19:02:02.031Z,3.53
2023-03-13T19:06:17.864Z,5.32
2023-03-13T19:10:24.706Z,7.10
2023-03-13T19:14:29.470Z,8.15
2023-03-13T19:18:33.081Z,5.40
2023-03-13T19:22:36.089Z,5.30
2023-03-13T19:26:41.711Z,6.00
2023-03-13T19:31:04.461Z,9.82
2023-03-13T19:35:08.632Z,5.80
2023-03-13T19:39:15.518Z,2.85
2023-03-13T19:43:18.399Z,8.95
2023-03-13T19:47:23.374Z,12.93
2023-03-13T19:51:28.925Z,6.60
2023-03-13T19:55:32.181Z,3.05
2023-03-13T19:59:38.969Z,2.47
2023-03-13T20:03:44.600Z,1.50
2023-03-13T20:07:49.387Z,3.35
2023-03-13T20:11:52.773Z,3.83
2023-03-13T20:15:55.801Z,4.53
2023-03-13T20:20:02.048Z,1.30
2023-03-13T20:24:05.573Z,1.92
2023-03-13T20:28:09.249Z,3.58
2023-03-13T20:32:13.442Z,1.77
2023-03-13T20:36:20.211Z,2.90
2023-03-13T20:40:23.180Z,2.13
2023-03-13T20:44:26.520Z,2.67
2023-03-13T20:48:30.220Z,1.67
2023-03-13T20:52:34.833Z,2.83
2023-03-13T20:56:41.341Z,4.97
2023-03-13T21:00:45.157Z,1.52
2023-03-13T21:04:48.166Z,4.68
2023-03-13T21:08:52.782Z,1.52
2023-03-13T21:12:56.285Z,1.20
2023-03-13T21:16:59.444Z,3.83
2023-03-13T21:21:05.957Z,3.42
2023-03-13T21:25:13.403Z,3.53
2023-03-13T21:29:16.256Z,1.58
2023-03-13T21:33:22.377Z,7.47
2023-03-13T21:41:31.035Z,5.88
2023-03-13T21:45:34.711Z,4.10
2023-03-13T21:49:37.838Z,3.05
2023-03-13T21:53:42.290Z,3.10
2023-03-13T21:57:46.957Z,3.38
2023-03-13T22:01:50.154Z,2.53
2023-03-13T22:05:53.630Z,4.38
2023-03-13T22:09:56.787Z,3.88
2023-03-13T22:14:01.655Z,1.58
2023-03-13T22:18:05.018Z,1.63
2023-03-13T22:22:08.585Z,1.15
2023-03-13T22:26:12.436Z,2.08
2023-03-13T22:30:17.182Z,2.10
2023-03-13T22:34:20.189Z,1.58
2023-03-13T22:38:24.225Z,2.58
2023-03-13T22:42:27.111Z,4.45
2023-03-13T22:46:31.869Z,2.70
2023-03-13T22:50:35.238Z,2.88
2023-03-13T22:54:38.568Z,2.55
2023-03-13T22:58:42.442Z,2.72
2023-03-13T23:02:47.214Z,2.65
2023-03-13T23:06:50.346Z,4.05
2023-03-13T23:10:53.888Z,4.30
2023-03-13T23:14:59.597Z,6.85
2023-03-13T23:19:05.247Z,2.70
2023-03-13T23:23:08.189Z,6.28
2023-03-13T23:27:11.635Z,2.83
2023-03-13T23:31:16.907Z,3.92
2023-03-13T23:35:22.379Z,4.53
2023-03-13T23:39:25.602Z,17.15
2023-03-13T23:43:28.852Z,7.13
2023-03-13T23:47:31.811Z,4.78
2023-03-13T23:51:36.403Z,7.60
2023-03-13T23:55:41.829Z,4.25
2023-03-13T23:59:45.229Z,3.35
